createdAt,value
2023-08-27T00:08:49.574Z,76.82
2023-08-27T00:25:08.216Z,76.33
2023-08-27T00:51:20.072Z,75.18
2023-08-27T01:06:22.572Z,75.28
2023-08-27T01:21:26.963Z,75.26
2023-08-27T01:36:30.161Z,75.15
2023-08-27T01:51:32.495Z,75.36
2023-08-27T02:06:34.926Z,75.42
2023-08-27T02:21:37.281Z,75.80
2023-08-27T02:36:39.657Z,76.47
2023-08-27T02:51:42.053Z,76.38
2023-08-27T03:06:44.482Z,76.50
2023-08-27T03:21:46.962Z,76.84
2023-08-27T03:59:13.999Z,77.14
2023-08-27T04:14:44.665Z,76.73
2023-08-27T04:29:48.342Z,77.06
2023-08-27T04:46:08.561Z,76.53
2023-08-27T05:02:29.056Z,77.24
2023-08-27T05:31:43.532Z,76.81
2023-08-27T05:56:06.586Z,76.45
2023-08-27T06:12:26.223Z,75.87
2023-08-27T06:56:40.388Z,73.80
2023-08-27T07:11:42.775Z,74.12
2023-08-27T07:27:10.602Z,74.29
2023-08-27T07:42:13.040Z,73.95
2023-08-27T07:57:19.700Z,73.45
2023-08-27T08:12:24.714Z,73.32
2023-08-27T08:27:41.809Z,73.33
2023-08-27T08:43:25.026Z,73.25
2023-08-27T08:58:35.185Z,73.29
2023-08-27T09:13:39.050Z,72.65
2023-08-27T09:28:41.649Z,72.66
2023-08-27T09:43:54.548Z,72.45
2023-08-27T10:53:57.259Z,70.40
2023-08-27T11:32:27.191Z,69.56
2023-08-27T11:48:22.086Z,69.88
2023-08-27T12:03:53.312Z,69.84
2023-08-27T12:19:07.265Z,70.15
2023-08-27T12:35:24.228Z,70.36
2023-08-27T12:51:49.889Z,71.53
2023-08-27T13:24:21.427Z,71.16
2023-08-27T13:39:24.106Z,72.15
2023-08-27T13:55:43.304Z,72.28
2023-08-27T14:25:51.155Z,73.72
2023-08-27T14:59:34.952Z,75.51
2023-08-27T15:36:12.433Z,77.12
2023-08-27T16:03:51.348Z,77.04
2023-08-27T16:28:10.974Z,77.45
2023-08-27T16:43:39.495Z,78.54
2023-08-27T17:16:59.198Z,78.78
2023-08-27T17:33:43.648Z,79.14
2023-08-27T17:48:50.033Z,79.28
2023-08-27T18:03:52.878Z,78.87
2023-08-27T18:19:20.703Z,79.71
2023-08-27T18:34:23.268Z,80.06
2023-08-27T19:08:29.778Z,80.64
2023-08-27T19:24:58.886Z,80.52
2023-08-27T20:00:16.722Z,81.41
2023-08-27T20:15:20.771Z,81.41
2023-08-27T20:30:40.201Z,81.62
2023-08-27T21:00:15.107Z,81.82
2023-08-27T21:39:08.753Z,82.09
2023-08-27T21:54:12.943Z,82.23
2023-08-27T22:09:50.411Z,82.30
2023-08-27T22:24:57.595Z,82.80
2023-08-27T22:55:22.526Z,83.18
2023-08-27T23:10:24.914Z,83.17
2023-08-27T23:25:27.358Z,83.47
